createdAt,value
2023-02-02T00:01:23.044Z,1.20
2023-02-02T00:03:53.480Z,1.10
2023-02-02T00:06:21.621Z,1.10
2023-02-02T00:08:49.359Z,1.10
2023-02-02T00:11:19.516Z,1.10
2023-02-02T00:13:46.754Z,1.10
2023-02-02T00:16:29.882Z,1.10
2023-02-02T00:19:01.962Z,1.10
2023-02-02T00:21:29.493Z,1.10
2023-02-02T00:23:56.640Z,1.10
2023-02-02T00:26:24.082Z,1.10
2023-02-02T00:28:51.237Z,1.10
2023-02-02T00:31:18.199Z,1.10
2023-02-02T00:33:46.432Z,1.10
2023-02-02T00:36:13.449Z,1.20
2023-02-02T00:38:41.122Z,1.20
2023-02-02T00:41:08.487Z,1.10
2023-02-02T00:43:35.513Z,1.10
2023-02-02T00:46:02.574Z,1.10
2023-02-02T00:51:10.394Z,1.10
2023-02-02T00:53:37.374Z,1.10
2023-02-02T00:56:04.648Z,1.10
2023-02-02T00:58:31.603Z,1.10
2023-02-02T01:00:58.832Z,1.10
2023-02-02T01:03:25.812Z,1.10
2023-02-02T01:05:52.839Z,1.10
2023-02-02T01:08:19.806Z,1.10
2023-02-02T01:10:46.746Z,1.10
2023-02-02T01:13:13.722Z,1.10
2023-02-02T01:15:40.767Z,1.10
2023-02-02T01:18:07.777Z,1.10
2023-02-02T01:20:35.006Z,1.10
2023-02-02T01:23:01.950Z,1.10
2023-02-02T01:25:30.602Z,1.10
2023-02-02T01:27:57.583Z,1.20
2023-02-02T01:30:24.569Z,1.20
2023-02-02T01:32:51.640Z,1.20
2023-02-02T01:35:18.590Z,1.20
2023-02-02T01:37:45.545Z,1.20
2023-02-02T01:40:13.193Z,1.10
2023-02-02T01:42:40.144Z,1.10
2023-02-02T01:45:21.168Z,1.10
2023-02-02T01:47:56.627Z,1.10
2023-02-02T01:50:30.501Z,1.20
2023-02-02T01:53:00.674Z,1.20
2023-02-02T01:55:31.297Z,1.20
2023-02-02T01:58:06.241Z,1.10
2023-02-02T02:00:40.437Z,1.10
2023-02-02T02:03:15.267Z,1.10
2023-02-02T02:05:50.857Z,1.10
2023-02-02T02:08:27.726Z,1.10
2023-02-02T02:10:55.259Z,1.20
2023-02-02T02:13:44.071Z,1.10
2023-02-02T02:16:29.735Z,1.10
2023-02-02T02:19:05.518Z,1.10
2023-02-02T02:21:59.726Z,1.10
2023-02-02T02:25:17.062Z,1.10
2023-02-02T02:28:00.838Z,1.10
2023-02-02T02:30:49.332Z,1.00
2023-02-02T02:33:20.161Z,1.00
2023-02-02T02:36:31.059Z,1.00
2023-02-02T02:39:05.301Z,1.00
2023-02-02T02:41:37.875Z,1.00
2023-02-02T02:44:09.894Z,1.00
2023-02-02T02:46:38.170Z,1.00
2023-02-02T02:49:09.031Z,1.00
2023-02-02T02:51:53.960Z,1.00
2023-02-02T02:54:34.355Z,1.00
2023-02-02T02:57:07.534Z,1.00
2023-02-02T02:59:38.171Z,1.10
2023-02-02T03:02:24.624Z,1.00
2023-02-02T03:05:00.626Z,1.00
2023-02-02T03:07:35.083Z,1.00
2023-02-02T03:10:04.363Z,1.10
2023-02-02T03:12:31.372Z,1.00
2023-02-02T03:14:58.404Z,1.00
2023-02-02T03:17:27.958Z,1.00
2023-02-02T03:19:54.918Z,1.00
2023-02-02T03:22:22.076Z,1.00
2023-02-02T03:24:49.073Z,1.00
2023-02-02T03:27:16.245Z,1.00
2023-02-02T03:29:43.261Z,1.10
2023-02-02T03:32:10.529Z,1.00
2023-02-02T03:34:37.517Z,1.10
2023-02-02T03:37:04.581Z,1.10
2023-02-02T03:39:31.577Z,1.10
2023-02-02T03:41:58.607Z,1.10
2023-02-02T03:44:25.601Z,1.10
2023-02-02T03:46:55.722Z,1.10
2023-02-02T03:49:22.984Z,1.10
2023-02-02T03:51:50.053Z,1.10
2023-02-02T03:54:17.061Z,1.10
2023-02-02T03:56:44.121Z,1.10
2023-02-02T03:59:11.106Z,1.10
2023-02-02T04:01:38.226Z,1.10
2023-02-02T04:04:05.264Z,1.10
2023-02-02T04:06:32.343Z,1.10
2023-02-02T04:09:00.069Z,1.10
2023-02-02T04:11:27.115Z,1.00
2023-02-02T04:13:54.136Z,1.00
2023-02-02T04:16:21.197Z,1.00
2023-02-02T04:18:56.754Z,1.10
2023-02-02T04:21:23.779Z,1.10
2023-02-02T04:23:50.808Z,1.00
2023-02-02T04:26:17.856Z,1.10
2023-02-02T04:28:44.912Z,1.10
2023-02-02T04:31:11.950Z,1.10
2023-02-02T04:33:39.063Z,1.10
2023-02-02T04:36:06.605Z,1.10
2023-02-02T04:38:33.630Z,1.10
2023-02-02T04:41:09.863Z,1.00
2023-02-02T04:43:38.931Z,1.00
2023-02-02T04:46:06.139Z,1.00
2023-02-02T04:48:33.484Z,1.00
2023-02-02T04:51:02.697Z,1.00
2023-02-02T04:53:29.898Z,1.00
2023-02-02T04:55:56.954Z,1.00
2023-02-02T04:58:24.373Z,1.00
2023-02-02T05:00:51.346Z,1.00
2023-02-02T05:03:18.277Z,1.00
2023-02-02T05:05:45.267Z,1.00
2023-02-02T05:08:12.379Z,1.00
2023-02-02T05:10:42.668Z,1.00
2023-02-02T05:13:09.991Z,1.00
2023-02-02T05:15:36.929Z,1.00
2023-02-02T05:18:03.923Z,1.00
2023-02-02T05:20:30.868Z,1.00
2023-02-02T05:22:57.847Z,1.00
2023-02-02T05:25:25.002Z,1.00
2023-02-02T05:27:52.149Z,1.00
2023-02-02T05:30:19.169Z,1.00
2023-02-02T05:32:46.126Z,1.00
2023-02-02T05:35:13.058Z,1.00
2023-02-02T05:37:42.160Z,1.00
2023-02-02T05:40:10.940Z,1.00
2023-02-02T05:42:40.293Z,1.00
2023-02-02T05:45:07.728Z,1.00
2023-02-02T05:47:35.807Z,1.00
2023-02-02T05:50:03.368Z,1.10
2023-02-02T05:52:34.037Z,1.10
2023-02-02T05:55:01.005Z,1.10
2023-02-02T05:57:28.170Z,1.10
2023-02-02T05:59:55.361Z,1.10
2023-02-02T06:02:22.250Z,1.10
2023-02-02T06:04:49.232Z,1.10
2023-02-02T06:07:16.141Z,1.10
2023-02-02T06:09:43.064Z,1.10
2023-02-02T06:12:10.078Z,1.00
2023-02-02T06:14:37.043Z,1.10
2023-02-02T06:17:04.013Z,1.10
2023-02-02T06:19:31.033Z,1.10
2023-02-02T06:21:58.037Z,1.00
2023-02-02T06:24:25.193Z,1.00
2023-02-02T06:26:52.190Z,1.00
2023-02-02T06:29:19.121Z,1.00
2023-02-02T06:31:46.406Z,1.00
2023-02-02T06:34:16.463Z,1.00
2023-02-02T06:36:43.479Z,1.00
2023-02-02T06:39:10.561Z,1.00
2023-02-02T06:41:37.624Z,1.00
2023-02-02T06:44:04.656Z,1.00
2023-02-02T06:46:31.786Z,1.00
2023-02-02T06:48:58.762Z,1.00
2023-02-02T06:51:25.718Z,1.00
2023-02-02T06:53:52.616Z,1.00
2023-02-02T06:56:19.518Z,1.00
2023-02-02T06:58:46.455Z,1.10
2023-02-02T07:01:14.881Z,1.10
2023-02-02T07:03:42.187Z,1.10
2023-02-02T07:06:20.692Z,1.10
2023-02-02T07:08:54.582Z,1.10
2023-02-02T07:11:29.727Z,1.10
2023-02-02T07:13:56.740Z,1.10
2023-02-02T07:16:23.735Z,1.10
2023-02-02T07:18:50.807Z,1.10
2023-02-02T07:21:20.407Z,1.10
2023-02-02T07:23:47.477Z,1.10
2023-02-02T07:26:15.684Z,1.10
2023-02-02T07:28:43.262Z,1.10
2023-02-02T07:31:14.574Z,1.10
2023-02-02T07:33:43.110Z,1.10
2023-02-02T07:36:16.368Z,1.10
2023-02-02T07:38:44.480Z,1.20
2023-02-02T07:41:11.872Z,1.20
2023-02-02T07:43:39.113Z,1.20
2023-02-02T07:46:10.181Z,1.20
2023-02-02T07:48:37.681Z,1.30
2023-02-02T07:51:06.808Z,1.30
2023-02-02T07:53:34.293Z,1.30
2023-02-02T07:56:08.344Z,1.30
2023-02-02T07:58:35.290Z,1.30
2023-02-02T08:01:04.116Z,1.30
2023-02-02T08:03:31.093Z,1.30
2023-02-02T08:05:59.379Z,1.40
2023-02-02T08:08:26.470Z,1.40
2023-02-02T08:10:54.642Z,1.40
2023-02-02T08:13:21.650Z,1.40
2023-02-02T08:15:48.667Z,1.40
2023-02-02T08:18:15.679Z,1.40
2023-02-02T08:20:43.684Z,1.40
2023-02-02T08:23:15.731Z,1.40
2023-02-02T08:25:43.086Z,1.30
2023-02-02T08:28:10.091Z,1.30
2023-02-02T08:30:37.118Z,1.30
2023-02-02T08:33:04.144Z,1.20
2023-02-02T08:35:31.108Z,1.30
2023-02-02T08:37:58.034Z,1.30
2023-02-02T08:40:25.503Z,1.30
2023-02-02T08:42:56.007Z,1.30
2023-02-02T08:46:07.898Z,1.30
2023-02-02T08:48:12.479Z,1.30
2023-02-02T08:50:40.239Z,1.40
2023-02-02T08:53:07.212Z,1.40
2023-02-02T08:55:34.272Z,1.40
2023-02-02T08:58:01.301Z,1.40
2023-02-02T09:00:28.245Z,1.40
2023-02-02T09:02:55.327Z,1.40
2023-02-02T09:05:22.423Z,1.50
2023-02-02T09:07:49.566Z,1.50
2023-02-02T09:10:16.941Z,1.40
2023-02-02T09:12:43.874Z,1.40
2023-02-02T09:15:12.204Z,1.30
2023-02-02T09:17:39.145Z,1.30
2023-02-02T09:20:06.858Z,1.30
2023-02-02T09:22:33.854Z,1.30
2023-02-02T09:25:00.760Z,1.20
2023-02-02T09:27:27.694Z,1.30
2023-02-02T09:29:54.642Z,1.20
2023-02-02T09:32:21.548Z,1.30
2023-02-02T09:34:48.505Z,1.30
2023-02-02T09:37:15.476Z,1.40
2023-02-02T09:39:42.466Z,1.40
2023-02-02T09:42:35.756Z,1.50
2023-02-02T09:45:08.046Z,1.60
2023-02-02T09:47:46.143Z,1.70
2023-02-02T09:51:06.668Z,1.80
2023-02-02T09:54:12.734Z,1.90
2023-02-02T09:56:43.618Z,2.10
2023-02-02T09:59:22.356Z,2.10
2023-02-02T10:01:55.567Z,2.10
2023-02-02T10:04:29.897Z,2.10
2023-02-02T10:07:01.592Z,2.00
2023-02-02T10:09:47.634Z,2.00
2023-02-02T10:12:33.201Z,2.00
2023-02-02T10:15:13.200Z,2.00
2023-02-02T10:17:47.396Z,2.00
2023-02-02T10:20:39.116Z,1.90
2023-02-02T10:23:33.983Z,1.90
2023-02-02T10:26:18.907Z,1.90
2023-02-02T10:28:48.595Z,1.90
2023-02-02T10:31:36.733Z,1.90
2023-02-02T10:34:16.291Z,2.00
2023-02-02T10:37:12.078Z,2.00
2023-02-02T10:39:48.095Z,2.10
2023-02-02T10:42:28.084Z,2.10
2023-02-02T10:45:13.907Z,2.00
2023-02-02T10:47:41.058Z,2.00
2023-02-02T10:50:14.262Z,2.00
2023-02-02T10:52:46.535Z,2.00
2023-02-02T10:55:32.997Z,2.00
2023-02-02T10:58:06.232Z,2.00
2023-02-02T11:00:40.604Z,2.00
2023-02-02T11:03:10.676Z,2.00
2023-02-02T11:05:56.502Z,2.00
2023-02-02T11:08:30.605Z,2.00
2023-02-02T11:11:05.083Z,2.00
2023-02-02T11:13:37.615Z,1.90
2023-02-02T11:16:42.272Z,1.90
2023-02-02T11:19:19.857Z,1.90
2023-02-02T11:21:56.657Z,2.00
2023-02-02T11:24:46.104Z,2.10
2023-02-02T11:27:33.377Z,2.10
2023-02-02T11:30:10.352Z,2.10
2023-02-02T11:32:38.061Z,2.10
2023-02-02T11:35:15.001Z,2.00
2023-02-02T11:38:10.255Z,2.00
2023-02-02T11:40:42.232Z,2.00
2023-02-02T11:43:34.748Z,1.90
2023-02-02T11:46:05.193Z,1.90
2023-02-02T11:48:36.192Z,1.80
2023-02-02T11:51:04.842Z,1.80
2023-02-02T11:53:47.904Z,1.90
2023-02-02T11:56:25.498Z,1.90
2023-02-02T11:59:00.920Z,1.80
2023-02-02T12:01:41.930Z,1.70
2023-02-02T12:04:18.251Z,1.60
2023-02-02T12:06:45.875Z,1.60
2023-02-02T12:09:15.382Z,1.60
2023-02-02T12:11:48.154Z,1.60
2023-02-02T12:14:55.137Z,1.60
2023-02-02T12:17:45.171Z,1.50
2023-02-02T12:20:50.617Z,1.50
2023-02-02T12:23:27.113Z,1.50
2023-02-02T12:26:19.372Z,1.50
2023-02-02T12:28:58.759Z,1.50
2023-02-02T12:31:42.817Z,1.50
2023-02-02T12:34:27.490Z,1.50
2023-02-02T12:37:21.195Z,1.50
2023-02-02T12:40:25.954Z,1.50
2023-02-02T12:43:04.041Z,1.60
2023-02-02T12:45:43.347Z,1.60
2023-02-02T12:48:19.377Z,1.50
2023-02-02T12:51:15.013Z,1.50
2023-02-02T12:53:47.798Z,1.50
2023-02-02T12:56:59.157Z,1.50
2023-02-02T12:59:44.637Z,1.50
2023-02-02T13:02:42.387Z,1.40
2023-02-02T13:05:33.037Z,1.50
2023-02-02T13:08:06.079Z,1.40
2023-02-02T13:10:41.095Z,1.40
2023-02-02T13:13:24.597Z,1.50
2023-02-02T13:15:55.335Z,1.40
2023-02-02T13:18:27.769Z,1.30
2023-02-02T13:21:15.539Z,1.30
2023-02-02T13:23:56.047Z,1.30
2023-02-02T13:26:32.680Z,1.30
2023-02-02T13:29:47.282Z,1.20
2023-02-02T13:32:30.457Z,1.30
2023-02-02T13:35:18.988Z,1.20
2023-02-02T13:38:12.383Z,1.20
2023-02-02T13:40:41.733Z,1.20
2023-02-02T13:43:08.898Z,1.20
2023-02-02T13:45:42.869Z,1.10
2023-02-02T13:48:27.791Z,1.10
2023-02-02T13:51:31.406Z,1.10
2023-02-02T13:54:17.036Z,1.10
2023-02-02T13:57:08.560Z,1.10
2023-02-02T13:59:50.619Z,1.10
2023-02-02T14:02:46.607Z,1.10
2023-02-02T14:05:40.385Z,1.10
2023-02-02T14:08:22.006Z,1.10
2023-02-02T14:10:54.702Z,1.00
2023-02-02T14:13:28.026Z,1.00
2023-02-02T14:15:57.895Z,1.00
2023-02-02T14:18:50.226Z,1.00
2023-02-02T14:21:31.833Z,1.00
2023-02-02T14:24:24.497Z,1.00
2023-02-02T14:27:13.270Z,1.00
2023-02-02T14:29:47.026Z,1.00
2023-02-02T14:32:29.311Z,0.90
2023-02-02T14:35:13.848Z,0.90
2023-02-02T14:38:01.727Z,0.90
2023-02-02T14:40:53.172Z,0.90
2023-02-02T14:43:52.339Z,0.90
2023-02-02T14:46:34.547Z,0.90
2023-02-02T14:49:01.478Z,0.90
2023-02-02T14:51:31.322Z,0.90
2023-02-02T14:54:05.007Z,0.90
2023-02-02T14:56:51.297Z,0.80
2023-02-02T14:59:39.224Z,0.70
2023-02-02T15:02:17.391Z,0.70
2023-02-02T15:04:47.916Z,0.60
2023-02-02T15:07:23.990Z,0.60
2023-02-02T15:09:56.299Z,0.60
2023-02-02T15:12:46.953Z,0.50
2023-02-02T15:15:22.773Z,0.50
2023-02-02T15:18:15.432Z,0.50
2023-02-02T15:20:48.965Z,0.40
2023-02-02T15:23:39.088Z,0.40
2023-02-02T15:26:25.912Z,0.40
2023-02-02T15:29:08.982Z,0.40
2023-02-02T15:31:52.366Z,0.40
2023-02-02T15:34:22.506Z,0.40
2023-02-02T15:36:53.883Z,0.40
2023-02-02T15:39:29.120Z,0.40
2023-02-02T15:42:17.225Z,0.40
2023-02-02T15:44:44.290Z,0.40
2023-02-02T15:47:28.900Z,0.40
2023-02-02T15:49:56.241Z,0.30
2023-02-02T15:52:29.031Z,0.40
2023-02-02T15:54:58.111Z,0.30
2023-02-02T15:57:32.403Z,0.30
2023-02-02T16:00:01.022Z,0.30
2023-02-02T16:02:31.416Z,0.30
2023-02-02T16:04:58.408Z,0.30
2023-02-02T16:07:34.126Z,0.30
2023-02-02T16:10:06.884Z,0.40
2023-02-02T16:12:35.675Z,0.40
2023-02-02T16:15:03.996Z,0.40
2023-02-02T16:17:36.148Z,0.40
2023-02-02T16:20:08.707Z,0.50
2023-02-02T16:22:46.822Z,0.50
2023-02-02T16:25:19.306Z,0.50
2023-02-02T16:27:48.777Z,0.50
2023-02-02T16:30:39.516Z,0.50
2023-02-02T16:33:36.531Z,0.50
2023-02-02T16:36:25.159Z,0.60
2023-02-02T16:38:54.759Z,0.60
2023-02-02T16:41:34.695Z,0.60
2023-02-02T16:44:56.131Z,0.60
2023-02-02T16:47:25.724Z,0.60
2023-02-02T16:50:07.779Z,0.60
2023-02-02T16:52:47.672Z,0.60
2023-02-02T16:55:18.084Z,0.70
2023-02-02T16:57:47.137Z,0.70
2023-02-02T17:00:28.729Z,0.70
2023-02-02T17:03:07.971Z,0.70
2023-02-02T17:05:50.040Z,0.70
2023-02-02T17:08:31.210Z,0.70
2023-02-02T17:11:29.684Z,0.80
2023-02-02T17:13:56.663Z,0.80
2023-02-02T17:16:25.093Z,0.80
2023-02-02T17:18:52.244Z,0.90
2023-02-02T17:21:24.456Z,0.80
2023-02-02T17:23:54.413Z,0.80
2023-02-02T17:26:21.616Z,0.90
2023-02-02T17:28:49.827Z,0.90
2023-02-02T17:31:17.099Z,0.90
2023-02-02T17:33:44.365Z,0.90
2023-02-02T17:36:13.381Z,0.90
2023-02-02T17:38:40.714Z,0.90
2023-02-02T17:41:10.531Z,1.00
2023-02-02T17:43:37.599Z,1.00
2023-02-02T17:46:10.163Z,0.90
2023-02-02T17:48:37.329Z,0.90
2023-02-02T17:51:07.356Z,0.90
2023-02-02T17:53:34.732Z,0.90
2023-02-02T17:56:01.733Z,0.90
2023-02-02T17:58:28.802Z,0.90
2023-02-02T18:00:59.082Z,0.90
2023-02-02T18:03:34.623Z,0.90
2023-02-02T18:06:02.465Z,0.90
2023-02-02T18:08:30.855Z,0.90
2023-02-02T18:10:58.432Z,0.90
2023-02-02T18:13:26.007Z,0.90
2023-02-02T18:15:54.064Z,0.90
2023-02-02T18:18:21.170Z,0.90
2023-02-02T18:20:50.040Z,0.90
2023-02-02T18:23:25.494Z,0.90
2023-02-02T18:25:55.197Z,0.90
2023-02-02T18:28:22.355Z,0.90
2023-02-02T18:30:49.527Z,0.90
2023-02-02T18:33:19.977Z,0.90
2023-02-02T18:35:48.910Z,0.90
2023-02-02T18:38:16.060Z,0.90
2023-02-02T18:40:43.365Z,0.90
2023-02-02T18:43:10.537Z,0.90
2023-02-02T18:45:37.679Z,0.90
2023-02-02T18:48:04.650Z,0.90
2023-02-02T18:50:31.745Z,0.90
2023-02-02T18:52:58.915Z,0.90
2023-02-02T18:55:29.915Z,0.90
2023-02-02T18:57:57.002Z,0.90
2023-02-02T19:00:24.138Z,0.90
2023-02-02T19:02:51.141Z,0.90
2023-02-02T19:05:36.522Z,0.90
2023-02-02T19:08:06.057Z,0.90
2023-02-02T19:10:33.204Z,0.90
2023-02-02T19:13:06.817Z,0.90
2023-02-02T19:15:39.668Z,0.80
2023-02-02T19:18:15.019Z,0.90
2023-02-02T19:20:43.206Z,0.90
2023-02-02T19:23:21.099Z,0.90
2023-02-02T19:25:51.703Z,0.90
2023-02-02T19:28:26.057Z,0.90
2023-02-02T19:30:55.067Z,0.80
2023-02-02T19:33:33.959Z,0.80
2023-02-02T19:36:00.913Z,0.80
2023-02-02T19:38:29.956Z,0.90
2023-02-02T19:40:57.089Z,0.90
2023-02-02T19:43:26.981Z,0.90
2023-02-02T19:45:55.465Z,0.90
2023-02-02T19:48:27.838Z,0.90
2023-02-02T19:50:58.124Z,0.90
2023-02-02T19:53:31.842Z,0.90
2023-02-02T19:55:59.011Z,0.80
2023-02-02T19:58:35.535Z,0.80
2023-02-02T20:01:15.195Z,0.80
2023-02-02T20:03:43.529Z,0.80
2023-02-02T20:06:24.638Z,0.80
2023-02-02T20:08:52.114Z,0.80
2023-02-02T20:11:38.470Z,0.70
2023-02-02T20:14:21.742Z,0.70
2023-02-02T20:16:55.811Z,0.70
2023-02-02T20:19:25.024Z,0.70
2023-02-02T20:21:53.409Z,0.60
2023-02-02T20:24:40.832Z,0.60
2023-02-02T20:27:17.698Z,0.60
2023-02-02T20:29:47.297Z,0.50
2023-02-02T20:32:26.963Z,0.50
2023-02-02T20:34:55.772Z,0.50
2023-02-02T20:37:29.198Z,0.40
2023-02-02T20:40:02.127Z,0.40
2023-02-02T20:42:29.965Z,0.40
2023-02-02T20:44:58.362Z,0.30
2023-02-02T20:47:25.461Z,0.30
2023-02-02T20:49:52.460Z,0.20
2023-02-02T20:52:24.003Z,0.10
2023-02-02T20:54:52.049Z,0.00
2023-02-02T20:57:19.160Z,0.00
2023-02-02T20:59:46.105Z,-0.10
2023-02-02T21:02:19.167Z,-0.10
2023-02-02T21:04:50.641Z,-0.20
2023-02-02T21:07:20.812Z,-0.20
2023-02-02T21:09:50.453Z,-0.30
2023-02-02T21:12:18.493Z,-0.30
2023-02-02T21:14:45.516Z,-0.40
2023-02-02T21:17:15.595Z,-0.40
2023-02-02T21:19:43.668Z,-0.50
2023-02-02T21:22:11.557Z,-0.60
2023-02-02T21:24:38.667Z,-0.70
2023-02-02T21:27:05.676Z,-0.60
2023-02-02T21:29:33.097Z,-0.60
2023-02-02T21:32:02.665Z,-0.60
2023-02-02T21:34:30.926Z,-0.50
2023-02-02T21:36:58.798Z,-0.50
2023-02-02T21:39:35.227Z,-0.60
2023-02-02T21:42:08.018Z,-0.60
2023-02-02T21:44:39.477Z,-0.70
2023-02-02T21:47:33.075Z,-0.70
2023-02-02T21:50:22.955Z,-0.70
2023-02-02T21:52:49.999Z,-0.80
2023-02-02T21:55:36.803Z,-0.90
2023-02-02T21:58:25.602Z,-1.00
2023-02-02T22:00:54.253Z,-1.10
2023-02-02T22:03:34.908Z,-1.10
2023-02-02T22:06:22.155Z,-1.20
2023-02-02T22:08:49.806Z,-1.30
2023-02-02T22:11:31.336Z,-1.30
2023-02-02T22:14:13.652Z,-1.30
2023-02-02T22:16:45.402Z,-1.30
2023-02-02T22:19:28.386Z,-1.30
2023-02-02T22:22:23.855Z,-1.30
2023-02-02T22:25:03.649Z,-1.40
2023-02-02T22:27:47.227Z,-1.40
2023-02-02T22:30:32.655Z,-1.50
2023-02-02T22:32:59.975Z,-1.70
2023-02-02T22:35:29.363Z,-1.70
2023-02-02T22:37:56.343Z,-1.80
2023-02-02T22:40:23.613Z,-1.90
2023-02-02T22:42:54.900Z,-2.00
2023-02-02T22:45:22.337Z,-2.10
2023-02-02T22:47:49.426Z,-2.10
2023-02-02T22:50:17.981Z,-2.20
2023-02-02T22:52:45.010Z,-2.20
2023-02-02T22:55:13.076Z,-2.20
2023-02-02T22:57:40.118Z,-2.30
2023-02-02T23:00:19.392Z,-2.30
2023-02-02T23:02:46.320Z,-2.20
2023-02-02T23:05:15.453Z,-2.20
2023-02-02T23:07:45.795Z,-2.10
2023-02-02T23:10:15.409Z,-2.10
2023-02-02T23:12:43.513Z,-2.00
2023-02-02T23:15:12.006Z,-2.00
2023-02-02T23:17:39.314Z,-1.90
2023-02-02T23:20:09.944Z,-1.80
2023-02-02T23:22:37.015Z,-1.70
2023-02-02T23:25:04.541Z,-1.60
2023-02-02T23:27:31.577Z,-1.50
2023-02-02T23:29:58.565Z,-1.50
2023-02-02T23:32:25.579Z,-1.50
2023-02-02T23:34:52.490Z,-1.40
2023-02-02T23:37:19.456Z,-1.40
2023-02-02T23:39:46.424Z,-1.30
2023-02-02T23:42:13.715Z,-1.30
2023-02-02T23:44:40.692Z,-1.20
2023-02-02T23:47:08.268Z,-1.20
2023-02-02T23:49:35.467Z,-1.10
2023-02-02T23:52:02.718Z,-1.10
2023-02-02T23:54:30.401Z,-1.10
2023-02-02T23:56:57.638Z,-1.00
2023-02-02T23:59:24.893Z,-1.00
